Aviation Digital Data Service (ADDS)

Output produced by METARs form (1956 UTC 15 December 2017)
found at http://www.aviationweather.gov/adds/metars/
 
KLNS 151953Z 00000KT 1/2SM SN FZFG VV016 M04/M06 A2993 RMK AO2 SLP140 P0000 T10441061
KLNS 151938Z 00000KT 3/4SM -SN BKN024 OVC047 M04/M07 A2993 RMK AO2 P0000 T10441072
KLNS 151932Z 25003KT 1 3/4SM -SN BKN031 OVC048 M04/M07 A2993 RMK AO2 P0000 T10391072
KLNS 151904Z 00000KT 4SM -SN OVC050 M04/M07 A2993 RMK AO2 P0000 T10391072
KLNS 151853Z 00000KT 2 1/2SM -SN BKN047 OVC055 M04/M08 A2994 RMK AO2 SNB10 SLP143 P0000 T10391078
KLNS 151753Z 20003KT 10SM BKN050 OVC055 M04/M09 A2996 RMK AO2 SLP153 T10391089 11033 21072 58037
KLNS 151653Z 16007KT 10SM OVC055 M03/M10 A3001 RMK AO2 SLP166 T10331100
KLNS 151553Z 00000KT 10SM OVC042 M04/M09 A3005 RMK AO2 SLP181 T10441089
KLNS 151453Z 10003KT 10SM OVC046 M05/M09 A3008 RMK AO2 SLP190 T10501089 58003
KLNS 151353Z 08003KT 10SM OVC047 M06/M09 A3008 RMK AO2 SLP190 T10611094
KLNS 151253Z 00000KT 10SM OVC045 M07/M10 A3009 RMK AO2 SLP194 T10671100
KLNS 151153Z 07004KT 10SM OVC042 M07/M10 A3009 RMK AO2 SLP193 T10721100 11056 21100 58003
KLNS 151053Z 00000KT 10SM FEW044 M09/M12 A3009 RMK AO2 SLP197 T10941117
KLNS 150953Z AUTO 00000KT 10SM CLR M08/M12 A3009 RMK AO2 SLP195 T10831117
KLNS 150853Z AUTO 00000KT 10SM CLR M09/M12 A3009 RMK AO2 SLP197 T10891117 56002
KLNS 150753Z AUTO 00000KT 10SM CLR M08/M12 A3009 RMK AO2 SLP196 T10831117
KLNS 150653Z AUTO 00000KT 10SM CLR M07/M12 A3009 RMK AO2 SLP195 T10721122
KLNS 150553Z AUTO 00000KT 10SM CLR M06/M13 A3010 RMK AO2 SLP197 T10561128 11028 21067 50002
KLNS 150453Z AUTO 00000KT 10SM CLR M06/M13 A3011 RMK AO2 SLP200 T10561128 400001061
KLNS 150353Z 34006KT 10SM CLR M05/M13 A3010 RMK AO2 SLP198 T10501128
KLNS 150253Z 34004KT 10SM CLR M04/M12 A3009 RMK AO2 SLP195 T10441122 51024
KLNS 150153Z 31008KT 10SM CLR M04/M12 A3008 RMK AO2 SLP192 T10391117
KLNS 150053Z 29009KT 10SM CLR M04/M11 A3006 RMK AO2 SLP183 T10391106
KLNS 142353Z 29006KT 10SM CLR M03/M11 A3002 RMK AO2 SLP171 T10331111 10000 21044 51033
KLNS 142253Z 29005KT 10SM CLR M03/M12 A3000 RMK AO2 SLP164 T10331117
KLNS 142153Z 32009KT 10SM CLR M02/M12 A2996 RMK AO2 SLP151 T10221117
KLNS 142053Z 31013KT 10SM CLR M01/M11 A2993 RMK AO2 SLP138 T10111111 53021
KLNS 141953Z 30013KT 10SM CLR 00/M09 A2989 RMK AO2 SLP127 T00001094
KLNS 141853Z 31012KT 10SM SCT047 00/M08 A2989 RMK AO2 SLP124 T00001083
KLNS 141753Z 32012KT 10SM SCT041 M01/M08 A2986 RMK AO2 SLP117 T10111078 11006 21044 51036
KLNS 141653Z 32009KT 10SM CLR M01/M07 A2983 RMK AO2 SLP105 T10111072
KLNS 141553Z 33016G21KT 10SM FEW032 M02/M07 A2981 RMK AO2 SLP098 T10171072
KLNS 141530Z 32016KT 10SM CLR M02/M07 A2980 RMK AO2 T10221072
KLNS 141453Z 31015KT 10SM CLR M02/M07 A2976 RMK AO2 PRESRR SLP081 T10221067 53066
KLNS 141353Z 30012KT 7SM FEW060 BKN080 M03/M04 A2970 RMK AO2 SLP061 T10281044
KLNS 141253Z 29007KT 8SM CLR M04/M05 A2961 RMK AO2 SLP033 T10391050
KLNS 141153Z 29004KT 6SM BR SCT100 M04/M04 A2956 RMK AO2 SLP014 70005 T10391044 11028 21044 53025
KLNS 141055Z 00000KT 7SM BKN048 OVC080 M03/M03 A2952 RMK AO2 T10281033
KLNS 141053Z AUTO 00000KT 7SM OVC048 M03/M03 A2952 RMK AO2 SLP999 T10281033
KLNS 140953Z AUTO 04003KT 8SM OVC043 M03/M03 A2949 RMK AO2 SLP991 T10281033
KLNS 140853Z AUTO 07005KT 8SM OVC046 M03/M04 A2948 RMK AO2 SLP988 T10281039 56023